Time;durP1;ratioP1;P1;durP2;ratioP2;P2;SDS_P1;SDS_P2;PMS_P1;PMS_P2;Temp;Humidity;BMP_temperature;BMP_pressure;BME280_temperature;BME280_humidity;BME280_pressure;Samples;Min_cycle;Max_cycle;Signal;HPM_P1;HPM_P2
2022/12/28 00:02:41;;;;;;;10.45;5.33;;;;;;;3.62;82.53;101233.45;3293366;85;21003;-77
2022/12/28 00:07:31;;;;;;;7.53;4.10;;;;;;;3.62;82.42;101230.88;3296548;85;21597;-77
2022/12/28 00:12:22;;;;;;;11.95;5.12;;;;;;;3.61;82.31;101226.52;3232436;84;21127;-78
2022/12/28 00:17:14;;;;;;;11.70;4.58;;;;;;;3.61;82.35;101229.09;3279456;85;22284;-78
2022/12/28 00:22:06;;;;;;;9.35;5.25;;;;;;;3.61;82.35;101223.95;3259680;85;21060;-78
2022/12/28 00:26:58;;;;;;;10.10;5.35;;;;;;;3.61;82.47;101225.23;3326919;83;21330;-77
2022/12/28 00:31:49;;;;;;;9.48;4.87;;;;;;;3.61;82.49;101232.95;3294115;83;20980;-78
2022/12/28 00:36:40;;;;;;;12.20;4.60;;;;;;;3.61;82.46;101229.09;3314580;83;20950;-78
2022/12/28 00:41:33;;;;;;;12.28;5.00;;;;;;;3.60;82.44;101232.48;3337017;83;21082;-78
2022/12/28 00:46:25;;;;;;;11.40;5.03;;;;;;;3.57;82.35;101232.31;3286160;83;21023;-79
2022/12/28 00:51:18;;;;;;;11.70;5.95;;;;;;;3.57;82.40;101240.03;3363291;83;21614;-77
2022/12/28 00:56:14;;;;;;;10.63;4.92;;;;;;;3.55;82.32;101245.50;3308823;83;20968;-77
2022/12/28 01:01:16;;;;;;;12.93;5.83;;;;;;;3.54;82.45;101253.63;3323428;83;20990;-78
2022/12/28 01:06:11;;;;;;;9.13;4.30;;;;;;;3.53;82.42;101248.39;3361558;83;21018;-77
2022/12/28 01:11:13;;;;;;;13.25;4.53;;;;;;;3.53;82.41;101252.25;3331017;83;21099;-78
2022/12/28 01:16:18;;;;;;;9.75;4.53;;;;;;;3.51;82.45;101250.00;3317929;82;21557;-78
2022/12/28 01:21:16;;;;;;;8.53;5.33;;;;;;;3.52;82.65;101249.18;3284929;83;21223;-78
2022/12/28 01:26:08;;;;;;;10.88;4.55;;;;;;;3.49;82.55;101238.72;3327382;83;21039;-78
2022/12/28 01:31:09;;;;;;;9.75;4.60;;;;;;;3.47;82.37;101242.91;3309501;82;21291;-77
2022/12/28 01:36:13;;;;;;;6.75;4.33;;;;;;;3.44;82.55;101233.35;3328101;83;22152;-77
2022/12/28 01:41:10;;;;;;;9.63;5.42;;;;;;;3.41;82.50;101234.05;3340830;83;21078;-78
2022/12/28 01:46:02;;;;;;;14.80;4.83;;;;;;;3.39;82.67;101238.23;3348808;82;20991;-77
2022/12/28 01:50:53;;;;;;;6.37;4.40;;;;;;;3.39;82.66;101235.66;3369671;83;21038;-78
2022/12/28 01:55:46;;;;;;;9.55;5.00;;;;;;;3.41;82.70;101240.48;3317713;82;21057;-78
2022/12/28 02:00:39;;;;;;;11.63;6.28;;;;;;;3.41;82.71;101236.63;3344246;83;21304;-78
2022/12/28 02:05:44;;;;;;;13.13;5.83;;;;;;;3.41;82.59;101236.63;3330616;82;21093;-77
2022/12/28 02:10:36;;;;;;;7.55;4.42;;;;;;;3.42;82.52;101238.41;3365677;82;20935;-77
2022/12/28 02:15:28;;;;;;;12.73;5.83;;;;;;;3.42;82.54;101233.27;3347096;83;21812;-78
2022/12/28 02:20:19;;;;;;;9.33;6.47;;;;;;;3.40;82.42;101229.73;3317672;83;21264;-78
2022/12/28 02:25:37;;;;;;;12.90;5.35;;;;;;;3.39;82.62;101225.38;3350379;83;22145;-78
2022/12/28 02:30:33;;;;;;;9.88;5.80;;;;;;;3.39;82.61;101222.80;3369184;83;20964;-77
2022/12/28 02:35:57;;;;;;;8.90;6.17;;;;;;;3.35;82.57;101213.17;3348148;83;20983;-78
2022/12/28 02:41:08;;;;;;;7.45;5.00;;;;;;;3.35;82.78;101217.02;3355751;83;20962;-77
2022/12/28 02:52:09;;;;;;;8.03;5.08;;;;;;;3.33;82.61;101214.78;3368391;83;20956;-78
2022/12/28 02:57:25;;;;;;;15.00;6.35;;;;;;;3.32;82.84;101214.28;3345510;82;20992;-77
2022/12/28 03:02:47;;;;;;;9.23;5.72;;;;;;;3.28;82.74;101212.77;3343843;82;21049;-77
2022/12/28 03:34:13;;;;;;;14.20;7.40;;;;;;;2.45;83.12;101206.05;3308634;85;20981;-78
2022/12/28 03:39:49;;;;;;;12.50;6.47;;;;;;;2.33;83.37;101209.59;3283824;85;20969;-77
2022/12/28 03:44:46;;;;;;;11.38;6.28;;;;;;;2.20;83.37;101210.16;3294032;83;21106;-77
2022/12/28 03:49:38;;;;;;;10.47;6.83;;;;;;;2.06;83.45;101204.62;3315467;85;21157;-77
2022/12/28 03:54:29;;;;;;;10.35;6.25;;;;;;;1.92;83.70;101207.64;3296656;82;21063;-77
2022/12/28 03:59:21;;;;;;;10.85;6.58;;;;;;;1.84;83.78;101211.41;3317649;83;21015;-78
2022/12/28 04:04:14;;;;;;;11.30;6.15;;;;;;;1.71;83.82;101200.81;3315653;83;21002;-78
2022/12/28 04:09:07;;;;;;;12.25;6.03;;;;;;;1.60;83.84;101196.73;3290955;83;20986;-77
2022/12/28 04:13:59;;;;;;;11.05;6.62;;;;;;;1.45;83.88;101180.91;3316371;82;21465;-77
2022/12/28 04:18:52;;;;;;;8.53;5.97;;;;;;;1.35;83.94;101164.48;3294001;83;20988;-78
2022/12/28 04:23:44;;;;;;;9.73;5.92;;;;;;;1.22;84.00;101160.69;3291321;83;20932;-78
2022/12/28 04:28:41;;;;;;;12.45;6.55;;;;;;;1.11;83.98;101160.89;3349808;83;21222;-78
2022/12/28 04:33:36;;;;;;;12.75;6.22;;;;;;;1.00;84.19;101169.56;3318373;83;21545;-78
2022/12/28 04:38:27;;;;;;;8.40;5.20;;;;;;;0.95;84.39;101164.17;3348398;83;20951;-77
2022/12/28 04:43:18;;;;;;;11.18;6.25;;;;;;;0.89;84.22;101165.45;3301599;82;21032;-77
2022/12/28 04:48:09;;;;;;;9.08;6.75;;;;;;;0.78;84.18;101169.89;3321816;83;21858;-77
2022/12/28 04:53:00;;;;;;;10.15;5.97;;;;;;;0.67;84.24;101170.49;3358167;82;21068;-78
2022/12/28 04:57:51;;;;;;;14.00;6.40;;;;;;;0.60;84.56;101163.61;3292044;83;21537;-77
2022/12/28 05:02:42;;;;;;;8.45;5.70;;;;;;;0.53;84.17;101172.56;3317232;83;20996;-78
2022/12/28 05:07:33;;;;;;;13.90;6.85;;;;;;;0.39;83.84;101181.89;3325019;82;21031;-77
2022/12/28 05:12:25;;;;;;;9.18;5.90;;;;;;;0.28;84.02;101179.03;3290182;82;20984;-77
2022/12/28 05:17:16;;;;;;;11.18;6.58;;;;;;;0.26;84.29;101184.04;3338897;83;20956;-77
2022/12/28 05:22:11;;;;;;;9.48;6.65;;;;;;;0.22;84.43;101174.41;3368694;82;20956;-77
2022/12/28 05:27:03;;;;;;;8.48;5.67;;;;;;;0.18;84.50;101166.05;3347481;82;21019;-78
2022/12/28 05:31:54;;;;;;;10.50;5.65;;;;;;;0.12;84.46;101163.95;3278448;82;20968;-77
2022/12/28 05:36:45;;;;;;;8.03;5.55;;;;;;;0.03;84.19;101170.13;3271179;82;22312;-78
2022/12/28 05:41:36;;;;;;;12.82;6.87;;;;;;;-0.09;84.08;101153.20;3238806;83;20945;-78
2022/12/28 05:46:31;;;;;;;7.25;5.53;;;;;;;-0.14;84.24;101160.04;3291091;83;21011;-77
2022/12/28 05:51:29;;;;;;;10.32;5.92;;;;;;;-0.26;83.96;101161.40;3319521;82;22357;-78
2022/12/28 05:56:29;;;;;;;10.50;5.92;;;;;;;-0.32;84.31;101153.30;3265992;83;20984;-77
2022/12/28 06:01:23;;;;;;;12.20;7.72;;;;;;;-0.37;84.56;101150.45;3339945;83;21048;-77
2022/12/28 06:06:19;;;;;;;13.60;6.62;;;;;;;-0.42;84.22;101154.36;3364882;83;21524;-77
2022/12/28 06:11:15;;;;;;;11.55;8.00;;;;;;;-0.50;84.40;101146.55;3306259;83;22752;-78
2022/12/28 06:16:10;;;;;;;9.70;6.75;;;;;;;-0.52;84.81;101149.40;3343551;82;21576;-78
2022/12/28 06:21:14;;;;;;;11.33;7.75;;;;;;;-0.54;84.65;101161.19;3368510;82;21532;-78
2022/12/28 06:26:07;;;;;;;14.10;9.10;;;;;;;-0.54;85.12;101159.50;3290993;83;21050;-77
2022/12/28 06:31:07;;;;;;;14.10;8.63;;;;;;;-0.53;85.31;101143.81;3311628;83;21007;-78
2022/12/28 06:35:58;;;;;;;12.93;8.25;;;;;;;-0.51;85.42;101150.78;3352098;83;21182;-77
2022/12/28 06:40:49;;;;;;;14.95;9.20;;;;;;;-0.49;85.51;101155.60;3309666;83;21536;-77
2022/12/28 06:45:41;;;;;;;14.07;9.63;;;;;;;-0.48;85.54;101149.73;3330681;83;21509;-76
2022/12/28 06:50:32;;;;;;;15.15;9.60;;;;;;;-0.47;85.63;101145.09;3350182;83;20995;-76
2022/12/28 06:55:23;;;;;;;15.32;9.75;;;;;;;-0.45;85.66;101137.17;3339090;83;21004;-77
2022/12/28 07:00:15;;;;;;;15.58;10.58;;;;;;;-0.43;85.73;101144.91;3357121;83;21662;-76
2022/12/28 07:05:06;;;;;;;14.83;10.30;;;;;;;-0.39;85.71;101126.08;3313965;83;21030;-77
2022/12/28 07:09:57;;;;;;;18.25;11.15;;;;;;;-0.32;85.76;101123.92;3291703;83;21549;-76
2022/12/28 07:14:48;;;;;;;17.80;11.25;;;;;;;-0.25;85.77;101127.02;3297957;83;21062;-76
2022/12/28 07:19:39;;;;;;;17.90;10.57;;;;;;;-0.11;85.84;101117.68;3332862;83;20916;-76
2022/12/28 07:24:31;;;;;;;14.58;10.70;;;;;;;0.02;85.85;101113.01;3321579;83;21273;-77
2022/12/28 07:29:22;;;;;;;16.32;11.40;;;;;;;0.14;85.98;101102.67;3303297;82;21041;-77
2022/12/28 07:34:14;;;;;;;19.92;13.22;;;;;;;0.26;85.81;101104.75;3295652;84;20988;-76
2022/12/28 07:39:06;;;;;;;18.25;10.32;;;;;;;0.32;85.78;101094.94;3246180;85;21003;-77
2022/12/28 07:43:57;;;;;;;16.62;11.95;;;;;;;0.38;85.77;101082.92;3149404;87;20992;-77
2022/12/28 07:48:50;;;;;;;19.40;11.68;;;;;;;0.42;85.73;101094.23;3290221;84;21194;-77
2022/12/28 07:53:44;;;;;;;14.20;10.98;;;;;;;0.48;85.78;101089.09;3258360;85;22139;-76
2022/12/28 07:58:36;;;;;;;18.32;13.60;;;;;;;0.54;85.75;101097.17;3227849;85;21534;-77
2022/12/28 08:03:27;;;;;;;17.40;11.83;;;;;;;0.61;85.90;101085.66;3230791;85;21039;-76
2022/12/28 08:08:18;;;;;;;16.73;12.00;;;;;;;0.68;85.84;101083.98;3256846;85;21028;-77
2022/12/28 08:13:16;;;;;;;15.32;11.08;;;;;;;0.80;85.90;101083.84;3251899;85;21743;-76
2022/12/28 08:18:07;;;;;;;16.82;12.00;;;;;;;0.92;85.79;101085.01;3284890;85;21044;-77
2022/12/28 08:22:58;;;;;;;21.07;11.57;;;;;;;1.02;85.94;101092.47;3242438;85;21480;-77
2022/12/28 08:27:49;;;;;;;17.20;10.43;;;;;;;1.19;85.91;101093.89;3225739;83;20959;-76
2022/12/28 08:32:40;;;;;;;17.35;10.93;;;;;;;1.32;85.81;101098.95;3334618;83;21723;-76
2022/12/28 08:37:31;;;;;;;18.00;11.08;;;;;;;1.45;85.67;101074.56;3326976;83;21003;-77
2022/12/28 08:42:22;;;;;;;14.87;10.70;;;;;;;1.45;85.67;101074.56;3290428;83;21422;-77
2022/12/28 08:47:13;;;;;;;16.80;10.45;;;;;;;1.58;85.33;101077.86;3339256;83;21615;-78
2022/12/28 08:52:06;;;;;;;14.35;9.38;;;;;;;1.64;85.22;101080.36;3312252;83;21043;-77
2022/12/28 08:56:57;;;;;;;15.40;9.98;;;;;;;1.67;85.13;101074.55;3294588;84;21521;-77
2022/12/28 09:01:48;;;;;;;14.90;10.80;;;;;;;1.73;85.19;101062.07;3316593;83;22030;-78
2022/12/28 09:06:39;;;;;;;17.70;11.53;;;;;;;1.80;85.12;101062.91;3350541;83;21495;-78
2022/12/28 09:11:30;;;;;;;14.73;9.93;;;;;;;2.02;85.11;101070.55;3319467;83;21026;-77
2022/12/28 09:16:26;;;;;;;17.05;10.48;;;;;;;2.26;84.71;101068.09;3349729;83;21758;-76
2022/12/28 09:21:20;;;;;;;17.32;9.68;;;;;;;2.58;84.21;101061.30;3329579;83;20971;-77
2022/12/28 09:26:22;;;;;;;17.10;10.93;;;;;;;2.82;83.73;101057.87;3369511;83;21155;-75
2022/12/28 09:31:13;;;;;;;12.58;9.35;;;;;;;3.02;83.57;101044.84;3229356;85;20987;-78
2022/12/28 09:36:05;;;;;;;14.03;9.35;;;;;;;3.22;83.14;101043.71;3254575;85;21542;-78
2022/12/28 09:40:57;;;;;;;11.43;8.23;;;;;;;3.39;82.88;101037.73;3237766;85;20974;-78
2022/12/28 09:45:50;;;;;;;14.58;8.83;;;;;;;3.54;82.44;101022.59;3256400;85;20953;-78
2022/12/28 09:50:42;;;;;;;11.85;8.33;;;;;;;3.63;82.13;101011.48;3275770;85;22876;-79
2022/12/28 09:55:37;;;;;;;16.42;9.08;;;;;;;3.70;82.29;101020.39;3256361;85;21081;-79
2022/12/28 10:00:48;;;;;;;11.88;7.75;;;;;;;3.78;81.88;101009.67;3256413;83;21095;-78
2022/12/28 10:05:39;;;;;;;12.68;8.48;;;;;;;3.84;81.81;101000.50;3284443;85;21003;-77
2022/12/28 10:10:31;;;;;;;11.30;7.42;;;;;;;3.94;81.77;100998.86;3238038;83;21800;-77
2022/12/28 10:15:25;;;;;;;12.85;7.90;;;;;;;4.04;81.22;100988.17;3277118;85;21142;-77
2022/12/28 10:20:21;;;;;;;14.07;8.95;;;;;;;4.11;80.79;100973.51;3264582;85;21542;-78
2022/12/28 10:25:17;;;;;;;12.83;7.53;;;;;;;4.20;80.88;100960.19;3228741;85;21514;-78
2022/12/28 10:30:16;;;;;;;10.20;7.35;;;;;;;4.24;80.08;100957.35;3245848;84;20939;-80
2022/12/28 10:35:13;;;;;;;11.85;7.30;;;;;;;4.34;80.08;100962.13;3189626;86;21506;-79
2022/12/28 10:40:16;;;;;;;11.30;7.23;;;;;;;4.49;79.70;100951.25;3287276;86;21112;-79
2022/12/28 10:45:17;;;;;;;11.38;7.03;;;;;;;4.57;79.51;100937.01;3299954;85;21034;-81
2022/12/28 10:50:38;;;;;;;8.95;5.97;;;;;;;4.58;79.51;100931.06;3266254;85;20971;-78
2022/12/28 10:55:34;;;;;;;11.83;7.47;;;;;;;4.59;78.92;100914.77;3275803;85;21059;-79
2022/12/28 11:00:26;;;;;;;11.80;7.58;;;;;;;4.70;79.60;100906.65;3247605;85;21150;-80
2022/12/28 11:05:24;;;;;;;10.15;7.22;;;;;;;4.66;78.61;100895.75;3254076;86;21119;-80
2022/12/28 11:10:28;;;;;;;;;;;;;;;4.52;78.50;100892.14;3296079;84;21026;-80
2022/12/28 11:15:23;;;;;;;13.75;7.28;;;;;;;4.44;78.67;100888.78;3283516;84;20437;-80
2022/12/28 11:20:23;;;;;;;10.35;7.17;;;;;;;4.33;78.94;100884.44;3275707;84;21462;-79
2022/12/28 11:25:18;;;;;;;12.85;9.03;;;;;;;4.20;78.96;100872.69;3320392;84;20982;-80
2022/12/28 11:30:16;;;;;;;14.05;8.73;;;;;;;4.13;79.04;100862.55;3329739;82;21517;-79
2022/12/28 11:35:22;;;;;;;12.03;8.60;;;;;;;4.12;79.31;100853.47;3278982;83;21038;-79
2022/12/28 11:40:44;;;;;;;12.70;9.23;;;;;;;4.02;79.29;100850.86;3356596;82;21054;-79
2022/12/28 11:45:54;;;;;;;12.25;8.65;;;;;;;3.96;79.40;100839.02;3359868;83;21449;-78
2022/12/28 11:50:52;;;;;;;14.60;8.65;;;;;;;3.84;79.10;100818.75;3332516;83;21003;-79
2022/12/28 11:56:01;;;;;;;15.25;9.83;;;;;;;3.80;79.91;100822.00;3319566;83;21958;-79
2022/12/28 12:00:52;;;;;;;14.78;9.88;;;;;;;3.83;79.99;100829.86;3299031;83;21007;-79
2022/12/28 12:05:48;;;;;;;11.95;7.33;;;;;;;3.89;79.86;100824.11;3315723;83;20987;-78
2022/12/28 12:10:46;;;;;;;14.28;8.13;;;;;;;3.93;79.60;100805.42;3263085;83;20948;-77
2022/12/28 12:15:41;;;;;;;13.35;8.25;;;;;;;3.98;79.82;100800.09;3325221;83;21066;-78
2022/12/28 12:20:56;;;;;;;13.65;7.92;;;;;;;4.05;79.21;100793.53;3352361;83;22371;-80
2022/12/28 12:25:53;;;;;;;10.88;7.58;;;;;;;4.10;79.28;100778.77;3356937;83;21602;-78
2022/12/28 12:31:03;;;;;;;12.90;8.48;;;;;;;4.11;79.31;100772.78;3331340;83;21082;-80
2022/12/28 12:36:12;;;;;;;12.10;8.50;;;;;;;4.11;79.40;100753.48;3339465;83;20999;-79
2022/12/28 12:41:19;;;;;;;;;;;;;;;4.11;79.41;100742.33;3358446;83;20975;-80
2022/12/28 12:46:51;;;;;;;11.83;7.78;;;;;;;4.10;79.29;100727.72;3343093;83;21882;-79
2022/12/28 12:51:57;;;;;;;15.03;8.50;;;;;;;4.11;79.35;100726.47;3352103;83;21027;-78
2022/12/28 12:56:54;;;;;;;16.35;10.60;;;;;;;4.10;79.51;100722.16;3373895;83;21505;-79
2022/12/28 13:02:36;;;;;;;13.00;8.10;;;;;;;4.09;79.49;100709.22;3366228;83;20987;-79
2022/12/28 13:07:28;;;;;;;16.87;8.78;;;;;;;4.00;79.04;100713.14;3324332;83;20936;-80
2022/12/28 13:12:21;;;;;;;13.00;7.97;;;;;;;3.93;79.43;100707.67;3298250;83;21097;-80
2022/12/28 13:17:21;;;;;;;12.73;7.22;;;;;;;3.89;79.46;100698.08;3251247;86;21002;-79
2022/12/28 13:22:28;;;;;;;11.63;7.30;;;;;;;3.86;79.38;100691.08;3270553;85;21019;-79
2022/12/28 13:27:21;;;;;;;12.28;7.33;;;;;;;3.85;79.40;100698.77;3212379;85;21011;-80
2022/12/28 13:32:34;;;;;;;10.53;6.67;;;;;;;3.79;79.30;100697.67;3197489;86;21075;-80
2022/12/28 13:37:26;;;;;;;10.45;6.87;;;;;;;3.78;79.41;100684.33;3242372;86;21081;-80
2022/12/28 13:42:34;;;;;;;12.93;8.38;;;;;;;3.79;79.66;100661.67;3301833;85;20988;-79
2022/12/28 13:47:32;;;;;;;13.85;8.48;;;;;;;3.79;79.71;100651.77;3308504;85;20956;-80
2022/12/28 13:52:34;;;;;;;12.20;7.40;;;;;;;3.77;79.30;100662.02;3299920;85;21015;-80
2022/12/28 13:57:28;;;;;;;11.43;8.38;;;;;;;3.72;79.67;100640.74;3311565;85;21474;-80
2022/12/28 14:02:22;;;;;;;12.10;7.92;;;;;;;3.66;79.81;100631.08;3274399;85;21162;-80
2022/12/28 14:07:16;;;;;;;16.37;8.50;;;;;;;3.59;79.87;100626.48;3261249;85;21157;-83
2022/12/28 14:12:08;;;;;;;15.10;8.45;;;;;;;3.53;79.86;100617.22;3264439;84;21527;-82
2022/12/28 14:17:02;;;;;;;14.25;8.20;;;;;;;3.50;80.12;100622.22;3318425;84;21561;-80
2022/12/28 14:21:53;;;;;;;17.73;8.90;;;;;;;3.46;80.14;100614.78;3318228;85;21021;-81
2022/12/28 14:26:51;;;;;;;17.02;10.20;;;;;;;3.34;80.45;100612.95;3272286;84;21166;-81
2022/12/28 14:31:43;;;;;;;18.73;10.53;;;;;;;3.22;80.77;100621.02;3301070;84;21793;-81
2022/12/28 14:36:48;;;;;;;22.13;12.37;;;;;;;3.04;80.72;100614.22;3276382;84;22329;-82
2022/12/28 14:41:44;;;;;;;20.70;9.70;;;;;;;2.88;80.84;100615.62;3295365;84;21094;-82
2022/12/28 14:46:41;;;;;;;21.30;10.23;;;;;;;2.70;81.23;100604.47;3312357;84;21303;-81
2022/12/28 14:51:33;;;;;;;18.17;10.53;;;;;;;2.57;81.52;100596.19;3277928;84;21700;-82
2022/12/28 14:56:24;;;;;;;17.55;9.73;;;;;;;2.53;81.82;100591.73;3299672;84;21007;-82
2022/12/28 15:01:15;;;;;;;13.80;10.05;;;;;;;2.48;82.01;100586.77;3201716;86;21565;-80
2022/12/28 15:06:06;;;;;;;14.87;10.08;;;;;;;2.44;82.19;100595.14;3233472;86;21054;-80
2022/12/28 15:10:59;;;;;;;20.37;10.03;;;;;;;2.41;82.38;100584.31;3227454;85;21680;-80
2022/12/28 15:15:58;;;;;;;19.55;10.50;;;;;;;2.40;82.47;100567.17;3291080;85;21328;-79
2022/12/28 15:20:49;;;;;;;18.80;11.68;;;;;;;2.43;82.40;100568.99;3275399;85;20991;-80
2022/12/28 15:25:40;;;;;;;16.95;9.58;;;;;;;2.50;82.57;100578.73;3238221;85;21566;-79
2022/12/28 15:30:31;;;;;;;13.80;7.70;;;;;;;2.55;82.52;100577.69;3286810;85;21790;-80
2022/12/28 15:35:24;;;;;;;18.17;9.43;;;;;;;2.59;82.30;100575.31;3309074;82;21015;-80
2022/12/28 15:40:15;;;;;;;13.75;8.68;;;;;;;2.65;82.57;100575.62;3316710;83;22020;-79
2022/12/28 15:45:07;;;;;;;16.55;9.08;;;;;;;2.67;82.61;100559.88;3318663;83;21485;-80
2022/12/28 15:50:01;;;;;;;15.88;10.10;;;;;;;2.71;82.62;100557.46;3313419;83;21615;-80
2022/12/28 15:54:51;;;;;;;14.40;8.80;;;;;;;2.73;82.61;100548.14;3315554;83;21016;-79
2022/12/28 15:59:42;;;;;;;17.40;10.20;;;;;;;2.79;82.12;100559.58;3365770;83;21722;-80
2022/12/28 16:04:33;;;;;;;16.52;10.82;;;;;;;2.85;82.02;100569.25;3344176;83;20955;-79
2022/12/28 16:09:24;;;;;;;16.93;10.20;;;;;;;2.88;82.13;100570.67;3296270;83;21006;-79
2022/12/28 16:14:16;;;;;;;16.05;8.60;;;;;;;2.89;82.31;100558.30;3293351;83;21011;-79
2022/12/28 16:19:11;;;;;;;15.40;10.23;;;;;;;2.91;82.12;100563.09;3363481;83;21015;-78
2022/12/28 16:24:02;;;;;;;14.00;8.83;;;;;;;2.97;82.01;100557.34;3338910;83;21006;-79
2022/12/28 16:28:54;;;;;;;11.25;8.13;;;;;;;3.04;81.93;100557.71;3314574;83;21560;-77
2022/12/28 16:33:45;;;;;;;11.35;7.80;;;;;;;3.13;81.55;100551.20;3297035;83;20928;-78
2022/12/28 16:38:36;;;;;;;13.25;7.78;;;;;;;3.26;81.54;100539.39;3274717;83;20979;-77
2022/12/28 16:43:27;;;;;;;15.15;8.20;;;;;;;3.35;81.59;100535.92;3304997;83;21719;-79
2022/12/28 16:48:18;;;;;;;12.05;7.60;;;;;;;3.40;81.38;100535.72;3304889;83;21006;-77
2022/12/28 16:53:09;;;;;;;9.38;6.92;;;;;;;3.44;81.03;100528.60;3303942;83;21078;-78
2022/12/28 16:58:00;;;;;;;14.83;7.10;;;;;;;3.50;80.75;100523.25;3341969;83;21050;-78
2022/12/28 17:02:50;;;;;;;12.50;7.67;;;;;;;3.55;80.60;100528.19;3321426;83;21362;-78
2022/12/28 17:07:42;;;;;;;12.45;7.58;;;;;;;3.59;80.48;100527.50;3286388;83;20980;-77
2022/12/28 17:12:33;;;;;;;11.83;7.78;;;;;;;3.64;80.21;100527.28;3306735;83;20984;-77
2022/12/28 17:17:24;;;;;;;12.73;7.03;;;;;;;3.68;79.95;100520.58;3368609;83;21149;-78
2022/12/28 17:22:15;;;;;;;11.65;6.42;;;;;;;3.72;79.57;100523.35;3316084;83;21109;-78
2022/12/28 17:27:07;;;;;;;12.75;7.92;;;;;;;3.73;79.61;100512.23;3301529;83;20987;-78
2022/12/28 17:31:57;;;;;;;13.45;7.35;;;;;;;3.75;79.58;100505.45;3339603;83;21031;-78
2022/12/28 17:36:49;;;;;;;14.60;8.78;;;;;;;3.79;79.47;100511.60;3300798;83;21126;-78
2022/12/28 17:41:40;;;;;;;12.65;8.30;;;;;;;3.80;79.31;100496.23;3322297;83;20991;-78
2022/12/28 17:46:32;;;;;;;14.07;8.60;;;;;;;3.82;79.14;100498.46;3320022;83;21025;-78
2022/12/28 17:51:25;;;;;;;12.10;7.95;;;;;;;3.85;79.21;100504.57;3347359;83;21027;-79
2022/12/28 17:56:16;;;;;;;9.93;7.05;;;;;;;3.86;78.92;100502.45;3306016;83;21038;-78
2022/12/28 18:01:09;;;;;;;13.38;7.97;;;;;;;3.87;78.83;100492.23;3375034;82;20971;-78
2022/12/28 18:06:01;;;;;;;13.05;7.75;;;;;;;3.89;78.70;100491.01;3322564;83;21113;-78
2022/12/28 18:10:52;;;;;;;12.88;7.92;;;;;;;3.90;78.81;100487.60;3350990;83;21281;-78
2022/12/28 18:15:45;;;;;;;11.80;8.58;;;;;;;3.92;78.59;100487.28;3302402;83;20956;-78
2022/12/28 18:20:36;;;;;;;13.35;8.98;;;;;;;3.93;78.62;100478.73;3289614;83;21048;-78
2022/12/28 18:25:27;;;;;;;14.70;8.40;;;;;;;3.95;78.90;100502.81;3343723;83;21094;-78
2022/12/28 18:30:18;;;;;;;12.30;7.85;;;;;;;3.95;78.76;100490.86;3284398;83;21557;-78
2022/12/28 18:35:10;;;;;;;12.43;8.68;;;;;;;3.95;78.90;100496.39;3350153;83;20979;-79
2022/12/28 18:40:02;;;;;;;14.60;8.40;;;;;;;3.95;78.73;100493.81;3288929;83;20951;-78
2022/12/28 18:44:53;;;;;;;13.68;8.40;;;;;;;3.95;78.77;100485.71;3328912;82;21528;-78
2022/12/28 18:49:44;;;;;;;13.72;8.25;;;;;;;3.97;78.68;100494.36;3257901;83;21019;-78
2022/12/28 18:54:35;;;;;;;15.28;9.80;;;;;;;3.99;78.52;100483.72;3360290;82;21724;-78
2022/12/28 18:59:27;;;;;;;10.63;8.53;;;;;;;4.03;78.62;100470.57;3315148;83;20964;-78
2022/12/28 19:04:19;;;;;;;14.70;8.10;;;;;;;4.06;78.43;100465.94;3324086;83;21070;-78
2022/12/28 19:09:11;;;;;;;12.13;9.05;;;;;;;4.08;78.09;100458.77;3343642;83;20936;-79
2022/12/28 19:14:08;;;;;;;12.88;8.13;;;;;;;4.09;78.41;100463.08;3345517;83;20940;-78
2022/12/28 19:19:00;;;;;;;12.10;7.25;;;;;;;4.09;78.48;100464.36;3370974;82;21983;-78
2022/12/28 19:23:53;;;;;;;15.30;8.93;;;;;;;4.11;78.45;100462.72;3276509;82;20987;-78
2022/12/28 19:28:45;;;;;;;13.53;8.93;;;;;;;4.11;78.40;100458.86;3279055;82;20998;-79
2022/12/28 19:33:36;;;;;;;14.33;8.15;;;;;;;4.13;78.58;100458.92;3280890;85;21023;-78
2022/12/28 19:38:27;;;;;;;15.13;7.78;;;;;;;4.12;78.52;100463.20;3317477;85;20957;-78
2022/12/28 19:43:18;;;;;;;12.75;8.45;;;;;;;4.14;78.51;100458.99;3246668;84;21271;-79
2022/12/28 19:48:09;;;;;;;14.13;8.58;;;;;;;4.15;78.57;100465.91;3244870;85;20992;-78
2022/12/28 19:53:01;;;;;;;12.80;8.33;;;;;;;4.16;78.69;100459.92;3294760;85;20992;-79
2022/12/28 19:57:52;;;;;;;11.48;7.40;;;;;;;4.16;78.68;100448.77;3263601;85;21023;-78
2022/12/28 20:02:43;;;;;;;15.95;9.43;;;;;;;4.19;78.86;100438.17;3230624;85;21631;-78
2022/12/28 20:07:38;;;;;;;14.87;8.05;;;;;;;4.19;78.86;100438.17;3263697;85;21744;-78
2022/12/28 20:12:29;;;;;;;14.00;9.25;;;;;;;4.18;79.20;100440.27;3256709;85;21016;-78
2022/12/28 20:17:20;;;;;;;15.68;9.33;;;;;;;4.18;78.88;100440.27;3263287;85;21154;-78
2022/12/28 20:22:11;;;;;;;12.53;8.45;;;;;;;4.20;78.89;100449.34;3305125;84;20995;-79
2022/12/28 20:27:03;;;;;;;11.35;8.60;;;;;;;4.23;78.96;100444.73;3251074;84;21521;-78
2022/12/28 20:31:54;;;;;;;12.40;8.50;;;;;;;4.23;79.07;100444.73;3221998;85;21046;-80
2022/12/28 20:36:45;;;;;;;14.50;9.03;;;;;;;4.24;79.01;100446.47;3255232;85;21542;-79
2022/12/28 20:46:36;;;;;;;12.85;7.75;;;;;;;4.25;79.37;100448.24;3232691;85;21130;-79
2022/12/28 20:51:27;;;;;;;12.88;9.10;;;;;;;4.25;79.44;100449.53;3254795;85;21013;-79
2022/12/28 20:56:19;;;;;;;14.60;8.85;;;;;;;4.25;79.35;100448.24;3271486;85;21505;-79
2022/12/28 21:01:13;;;;;;;14.90;8.78;;;;;;;4.27;79.44;100451.75;3259251;85;21509;-79
2022/12/28 21:06:05;;;;;;;13.70;8.40;;;;;;;4.27;79.64;100446.18;3269207;85;20968;-79
2022/12/28 21:10:57;;;;;;;13.25;7.53;;;;;;;4.29;79.45;100437.23;3250512;85;20977;-78
2022/12/28 21:15:48;;;;;;;14.20;7.50;;;;;;;4.33;79.44;100435.27;3300588;85;21054;-78
2022/12/28 21:20:47;;;;;;;12.53;8.53;;;;;;;4.34;79.64;100433.14;3260154;85;21585;-78
2022/12/28 21:25:38;;;;;;;11.90;7.12;;;;;;;4.35;79.66;100422.04;3255518;85;21564;-78
2022/12/28 21:30:29;;;;;;;10.78;7.67;;;;;;;4.36;79.31;100423.39;3288260;85;21501;-78
2022/12/28 21:35:20;;;;;;;9.65;7.12;;;;;;;4.38;79.45;100425.99;3255549;85;20985;-78
2022/12/28 21:40:12;;;;;;;13.70;8.48;;;;;;;4.38;79.57;100417.88;3273454;85;21058;-78
2022/12/28 21:45:05;;;;;;;11.75;7.55;;;;;;;4.41;79.54;100413.66;3261862;85;21097;-78
2022/12/28 21:49:56;;;;;;;16.12;8.15;;;;;;;4.42;79.31;100401.23;3245671;85;20984;-78
2022/12/28 21:54:47;;;;;;;11.88;7.35;;;;;;;4.46;79.37;100397.98;3247995;85;21718;-79
2022/12/28 21:59:39;;;;;;;12.30;8.03;;;;;;;4.45;79.31;100393.22;3299676;85;20948;-79
2022/12/28 22:15:49;;;;;;;10.23;7.33;;;;;;;4.49;79.44;100394.20;3256438;85;22164;-78
2022/12/28 22:19:44;;;;;;;12.28;7.53;;;;;;;4.49;79.32;100396.39;3307676;85;21047;-78
2022/12/28 22:24:35;;;;;;;14.15;7.47;;;;;;;4.50;79.46;100392.11;3271701;85;21016;-78
2022/12/28 22:29:27;;;;;;;12.95;7.10;;;;;;;4.51;79.55;100387.02;3258086;85;22011;-78
2022/12/28 22:34:18;;;;;;;11.93;7.40;;;;;;;4.51;79.45;100380.59;3240912;85;21752;-78
2022/12/28 22:39:10;;;;;;;9.23;6.92;;;;;;;4.54;79.39;100386.24;3261725;85;42021;-78
2022/12/28 22:44:01;;;;;;;11.25;7.15;;;;;;;4.54;79.14;100388.43;3246408;85;20936;-78
2022/12/28 22:48:52;;;;;;;10.98;7.20;;;;;;;4.57;79.19;100386.36;3332991;84;21015;-79
2022/12/28 22:53:44;;;;;;;10.70;6.58;;;;;;;4.56;79.13;100382.92;3296092;85;21477;-79
2022/12/28 22:58:36;;;;;;;9.73;6.47;;;;;;;4.56;79.13;100382.92;3276833;85;23222;-78
2022/12/28 23:03:26;;;;;;;9.83;6.30;;;;;;;4.63;79.09;100381.41;3271067;85;21033;-79
2022/12/28 23:08:18;;;;;;;10.35;6.75;;;;;;;4.66;79.14;100374.23;3261953;85;20987;-79
2022/12/28 23:13:08;;;;;;;10.20;6.30;;;;;;;4.69;79.03;100371.77;3269133;85;20956;-79
2022/12/28 23:27:18;;;;;;;12.13;7.12;;;;;;;4.70;78.96;100363.20;3228086;85;21039;-77
2022/12/28 23:28:07;;;;;;;9.10;5.97;;;;;;;4.76;78.80;100353.13;3266683;85;21015;-78
2022/12/28 23:32:59;;;;;;;9.45;5.70;;;;;;;4.77;78.80;100360.02;3281934;84;21743;-79
2022/12/28 23:37:51;;;;;;;8.88;6.28;;;;;;;4.80;78.84;100358.84;3289286;82;21265;-78
2022/12/28 23:42:43;;;;;;;7.87;5.80;;;;;;;4.81;78.46;100349.02;3325586;83;20944;-79